Reese River Valley, Nevada Weather observations

Data are for 10 minute period ending at time listed.
 Day   Time   Solar   Ave.   Ave.  Ave.  Vector  Max.   Baro.   Total    
  of    of     Rad.   Air    Rel.  Wind   Wind   Wind  Press.  Precip.   
Year   Day            Temp.  Hum.  Speed  Dir.   Gust                    
2014   (PST)  Kw/m2    F      %     mph   deg.    mph    mb.     in.     
-------------------------------------------------------------------------
 332    0:00   0.00   36.3    38    6.8   234     9.5   817.3    0.00 
 332    0:10   0.00   36.2    38    6.5   231     7.9   817.3    0.00 
 332    0:20   0.00   33.5    43    6.3   236     7.8   817.2    0.00 
 332    0:30   0.00   33.0    44    5.7   233     7.7   817.2    0.00 
 332    0:40   0.00   31.4    48    5.9   220     7.3   817.1    0.00 
 332    0:50   0.00   31.2    47    5.4   214     6.4   817.1    0.00 
 332    1:00   0.00   31.9    45    5.5   215     6.6   817.0    0.00 
 332    1:10   0.00   34.1    39    7.4   207    11.7   816.9    0.00 
 332    1:20   0.00   37.1    35    7.7   211    11.8   816.8    0.00 
 332    1:30   0.00   36.0    36    5.5   194     8.8   816.8    0.00 
 332    1:40   0.00   35.5    38    6.8   218     9.9   816.7    0.00 
 332    1:50   0.00   36.1    37    7.5   235    11.2   816.7    0.00 
 332    2:00   0.00   37.2    34    9.4   228    12.6   816.6    0.00 
 332    2:10   0.00   38.1    32   10.6   226    14.2   816.5    0.00 
 332    2:20   0.00   38.7    32   10.8   225    15.6   816.4    0.00 
 332    2:30   0.00   38.2    32   10.9   228    14.2   816.3    0.00 
 332    2:40   0.00   38.0    32   10.6   228    12.9   816.2    0.00 
 332    2:50   0.00   38.9    31   11.3   229    16.1   816.1    0.00 
 332    3:00   0.00   38.5    32   11.7   229    16.3   816.0    0.00 
 332    3:10   0.00   38.7    31   11.4   228    15.1   815.9    0.00 
 332    3:20   0.00   37.2    34   10.6   230    13.2   815.8    0.00 
 332    3:30   0.00   34.8    38   10.1   233    13.4   815.7    0.00 
 332    3:40   0.00   34.0    40    9.4   234    11.6   815.6    0.00 
 332    3:50   0.00   34.8    39   10.0   234    13.3   815.5    0.00 
 332    4:00   0.00   35.6    37    9.7   231    13.5   815.4    0.00 
 332    4:10   0.00   35.4    37    9.2   236    12.5   815.3    0.00 
 332    4:20   0.00   34.8    38    9.6   234    12.0   815.3    0.00 
 332    4:30   0.00   34.4    38   10.2   234    12.8   815.2    0.00 
 332    4:40   0.00   34.8    37    9.8   228    13.5   815.2    0.00 
 332    4:50   0.00   34.1    38    9.6   228    11.6   815.1    0.00 
 332    5:00   0.00   34.4    37    9.8   225    11.8   815.0    0.00 
 332    5:10   0.00   35.5    35   10.9   228    14.5   815.0    0.00 
 332    5:20   0.00   35.9    34   11.1   230    13.6   815.0    0.00 
 332    5:30   0.00   34.7    36   10.2   225    12.9   815.0    0.00 
 332    5:40   0.00   33.9    38   10.0   222    12.9   815.0    0.00 
 332    5:50   0.00   33.3    39    9.4   224    12.1   815.0    0.00 
 332    6:00   0.00   35.1    34   10.4   233    13.2   815.0    0.00 
 332    6:10   0.00   35.0    34   10.6   236    13.7   815.0    0.00 
 332    6:20   0.00   35.2    33   10.6   238    13.1   814.9    0.00 
 332    6:30   0.00   34.1    35    9.8   235    12.0   814.9    0.00 
 332    6:40   0.01   33.3    36   10.4   236    13.9   814.8    0.00 
 332    6:50   0.00   35.2    32   10.7   234    14.0   814.8    0.00 
 332    7:00   0.01   35.4    32   10.6   236    14.1   814.8    0.00 
 332    7:10   0.02   33.9    35    9.3   242    12.3   814.7    0.00 
 332    7:20   0.03   32.0    39    9.3   240    12.9   814.7    0.00 
 332    7:30   0.04   30.2    44    7.5   241     9.3   814.7    0.00 
 332    7:40   0.06   30.9    43    9.5   239    12.6   814.6    0.00 
 332    7:50   0.07   31.9    41    8.5   243    11.5   814.5    0.00 
 332    8:00   0.09   34.3    37    8.1   241    11.8   814.5    0.00 
 332    8:10   0.11   38.1    31    9.0   231    11.7   814.5    0.00 
 332    8:20   0.12   43.4    24   10.8   206    16.6   814.4    0.00 
 332    8:30   0.14   49.9    17   12.4   196    16.3   814.3    0.00 
 332    8:40   0.15   43.2    28    8.1   229    11.2   814.2    0.00 
 332    8:50   0.19   42.9    27    8.8   218    13.5   814.1    0.00 
 332    9:00   0.23   52.5    15   13.7   191    18.2   813.9    0.00 
 332    9:10   0.26   54.6    14   14.8   188    18.7   813.7    0.00 
 332    9:20   0.28   55.3    13   13.4   185    17.6   813.7    0.00 
 332    9:30   0.33   56.1    13   13.2   184    17.7   813.7    0.00 
 332    9:40   0.39   57.3    12   13.5   179    17.2   813.6    0.00 
 332    9:50   0.40   58.4    12   12.2   183    16.7   813.6    0.00 
 332   10:00   0.43   59.9    11    9.9   172    13.9   813.6    0.00 
 332   10:10   0.44   60.7    11   11.9   198    20.8   813.5    0.00 
 332   10:20   0.48   61.1    10   13.1   202    18.1   813.4    0.00 
 332   10:30   0.52   62.1    10   14.7   205    21.4   813.2    0.00 
 332   10:40   0.51   62.5    10   14.0   205    20.5   813.1    0.00 
 332   10:50   0.48   62.5    10   16.9   204    24.8   812.9    0.00 
 332   11:00   0.49   62.5    10   17.1   209    28.6   812.8    0.00 
 332   11:10   0.52   62.8     9   17.7   209    24.5   812.7    0.00 
 332   11:20   0.55   62.9     9   18.6   210    25.6   812.7    0.00 
 332   11:30   0.55   63.1     9   19.2   208    28.5   812.6    0.00 
 332   11:40   0.55   63.0     9   19.9   206    28.6   812.4    0.00 
 332   11:50   0.56   63.2     9   21.8   208    30.7   812.2    0.00 
 332   12:00   0.55   63.1     9   21.0   210    27.9   812.1    0.00 
 332   12:10   0.54   63.2     9   20.5   209    28.5   811.9    0.00 
 332   12:20   0.54   63.3     9   19.8   206    27.5   811.9    0.00 

Return to Reese River Valley graphs page.


Western Regional Climate Center,wrcc@dri.edu